Terminal Aerodrome Forecast
Issued by NWS

Home | Current Version | Previous Version | Text Only | Print | Product List | Glossary On
Versions: 1 2 3 4 5 6 7 8 9 10 11 12 13 14 15 16 17 18 19 20 21 22 23 24 25 26 27 28 29 30
000
FTUS46 KLOX 211925 AAB
TAFSBP
TAF AMD
KSBP 211925Z 2119/2218 22005KT 6SM BR VCSH SCT008 BKN015
     FM212200 29010KT P6SM FEW025 BKN080
     FM220300 VRB03KT P6SM SCT080 BKN150
     FM221000 VRB03KT P6SM OVC015
     FM221700 VRB03KT P6SM SCT025 BKN100=

USA.gov is the U.S. government's official web portal to all federal, state and local government web resources and services.